Time;durP1;ratioP1;P1;durP2;ratioP2;P2;SDS_P1;SDS_P2;PMS_P1;PMS_P2;Temp;Humidity;BMP_temperature;BMP_pressure;BME280_temperature;BME280_humidity;BME280_pressure;Samples;Min_cycle;Max_cycle;Signal;HPM_P1;HPM_P2
2024/02/26 00:00:41;;;;;;;4.43;2.63;;;;;;;3.01;100.00;100577.00;5043124;28;20559;-73
2024/02/26 00:03:07;;;;;;;4.57;2.40;;;;;;;2.98;100.00;100576.44;5042993;28;20412;-73
2024/02/26 00:05:33;;;;;;;3.38;2.08;;;;;;;2.91;100.00;100581.44;5043739;28;20028;-74
2024/02/26 00:07:59;;;;;;;4.95;2.70;;;;;;;2.89;100.00;100587.88;5042875;28;20028;-73
2024/02/26 00:10:25;;;;;;;3.55;2.42;;;;;;;2.90;100.00;100587.72;5042831;28;20422;-74
2024/02/26 00:12:51;;;;;;;3.50;2.30;;;;;;;2.96;100.00;100604.94;5042783;28;20106;-73
2024/02/26 00:15:16;;;;;;;4.05;2.42;;;;;;;2.90;100.00;100605.47;5043268;28;20036;-73
2024/02/26 00:17:42;;;;;;;5.32;3.45;;;;;;;2.91;100.00;100612.47;5042724;28;20413;-73
2024/02/26 00:20:08;;;;;;;3.90;2.30;;;;;;;2.92;100.00;100617.66;5042519;28;20032;-73
2024/02/26 00:22:34;;;;;;;5.00;2.70;;;;;;;2.80;100.00;100629.28;5042851;28;20031;-73
2024/02/26 00:25:01;;;;;;;5.15;2.50;;;;;;;2.88;100.00;100621.53;5042242;28;20040;-73
2024/02/26 00:27:26;;;;;;;6.93;3.42;;;;;;;2.93;100.00;100631.75;5025838;28;20029;-73
2024/02/26 00:29:52;;;;;;;3.88;2.33;;;;;;;2.98;100.00;100633.06;5042426;28;20115;-73
2024/02/26 00:32:18;;;;;;;3.85;2.50;;;;;;;2.86;100.00;100623.50;5043032;28;20401;-73
2024/02/26 00:34:44;;;;;;;3.08;2.03;;;;;;;2.91;100.00;100626.59;5042320;28;20472;-73
2024/02/26 00:37:09;;;;;;;4.82;2.88;;;;;;;2.95;100.00;100632.47;5042259;28;20032;-74
2024/02/26 00:39:35;;;;;;;2.58;1.60;;;;;;;2.97;100.00;100633.22;5042237;28;20127;-73
2024/02/26 00:42:00;;;;;;;3.83;2.30;;;;;;;3.20;100.00;100640.06;5042178;28;20040;-73
2024/02/26 00:44:26;;;;;;;4.53;2.50;;;;;;;3.17;100.00;100634.16;5042195;28;20032;-73
2024/02/26 00:46:52;;;;;;;4.70;2.42;;;;;;;3.23;100.00;100628.34;5041966;28;20115;-73
2024/02/26 00:49:17;;;;;;;2.63;2.13;;;;;;;3.20;100.00;100641.84;5042617;28;20032;-73
2024/02/26 00:51:43;;;;;;;5.63;2.22;;;;;;;3.27;100.00;100645.69;5042190;28;20036;-73
2024/02/26 00:54:09;;;;;;;3.83;1.70;;;;;;;3.16;100.00;100643.09;5041990;28;20438;-74
2024/02/26 00:56:34;;;;;;;2.58;1.38;;;;;;;3.20;100.00;100656.00;5041947;28;20032;-73
2024/02/26 00:59:00;;;;;;;4.57;1.60;;;;;;;3.22;100.00;100669.97;5041892;28;20059;-73
2024/02/26 01:01:26;;;;;;;3.83;1.58;;;;;;;3.19;100.00;100674.72;5041162;28;20189;-74
2024/02/26 01:03:52;;;;;;;2.40;1.10;;;;;;;3.32;100.00;100678.03;5041871;28;20037;-73
2024/02/26 01:06:18;;;;;;;2.38;1.95;;;;;;;3.34;100.00;100675.25;5041704;28;20082;-73
2024/02/26 01:08:44;;;;;;;4.97;1.40;;;;;;;3.29;100.00;100683.59;5058432;28;20032;-73
2024/02/26 01:11:09;;;;;;;1.50;1.00;;;;;;;3.38;100.00;100697.91;5041721;28;20364;-74
2024/02/26 01:13:35;;;;;;;2.85;1.38;;;;;;;3.34;100.00;100710.63;5041692;28;20035;-73
2024/02/26 01:16:01;;;;;;;1.63;1.20;;;;;;;3.35;100.00;100722.94;5041685;28;20036;-74
2024/02/26 01:18:27;;;;;;;0.82;0.80;;;;;;;3.33;100.00;100734.66;5041601;28;20378;-73
2024/02/26 01:20:54;;;;;;;1.48;0.95;;;;;;;3.38;100.00;100733.31;5074316;28;20040;-74
2024/02/26 01:23:20;;;;;;;0.73;0.73;;;;;;;3.27;100.00;100746.66;5041668;28;20035;-73
2024/02/26 01:25:46;;;;;;;3.25;1.13;;;;;;;3.27;100.00;100758.13;5041593;28;20051;-74
2024/02/26 01:28:11;;;;;;;2.50;1.13;;;;;;;3.25;100.00;100761.88;5074275;28;20454;-73
2024/02/26 01:30:37;;;;;;;3.08;1.10;;;;;;;3.16;100.00;100773.28;5041368;28;20032;-73
2024/02/26 01:33:03;;;;;;;3.58;1.52;;;;;;;3.18;100.00;100779.31;5057943;28;20029;-73
2024/02/26 01:35:29;;;;;;;1.75;1.25;;;;;;;2.94;100.00;100783.03;5057443;28;20032;-73
2024/02/26 01:37:55;;;;;;;3.05;1.30;;;;;;;2.81;100.00;100785.00;5040962;28;20039;-74
2024/02/26 01:40:21;;;;;;;2.10;1.23;;;;;;;2.82;100.00;100799.97;5041236;28;20032;-73
2024/02/26 01:42:48;;;;;;;1.80;1.20;;;;;;;2.60;100.00;100795.56;5041429;28;20044;-74
2024/02/26 01:45:20;;;;;;;2.53;1.27;;;;;;;2.48;100.00;100799.19;5041257;28;20036;-73
2024/02/26 01:47:46;;;;;;;6.80;1.35;;;;;;;2.41;100.00;100820.06;5041505;28;20035;-73
2024/02/26 01:50:12;;;;;;;1.58;0.93;;;;;;;2.36;100.00;100816.94;5041008;28;20028;-73
2024/02/26 01:52:38;;;;;;;4.07;1.20;;;;;;;2.30;100.00;100814.75;5040820;28;20455;-73
2024/02/26 01:55:04;;;;;;;4.30;1.08;;;;;;;1.96;100.00;100812.09;5040886;28;20040;-73
2024/02/26 01:57:29;;;;;;;2.17;1.52;;;;;;;1.85;100.00;100827.97;5057719;28;20032;-73
2024/02/26 01:59:55;;;;;;;3.10;1.42;;;;;;;1.95;100.00;100832.44;5040818;28;20466;-73
2024/02/26 02:02:21;;;;;;;1.10;0.90;;;;;;;2.16;100.00;100843.19;5056928;28;20036;-73
2024/02/26 02:04:47;;;;;;;1.92;0.90;;;;;;;2.28;100.00;100852.03;5040685;28;20119;-73
2024/02/26 02:07:12;;;;;;;1.30;1.00;;;;;;;2.35;100.00;100861.19;5040517;28;20056;-73
2024/02/26 02:09:38;;;;;;;2.13;1.20;;;;;;;2.22;100.00;100873.72;5040512;28;20363;-73
2024/02/26 02:12:04;;;;;;;5.60;1.35;;;;;;;1.82;100.00;100883.88;5056987;28;20059;-73
2024/02/26 02:14:30;;;;;;;1.00;0.90;;;;;;;1.40;100.00;100892.28;5072993;28;20447;-73
2024/02/26 02:16:56;;;;;;;2.78;1.20;;;;;;;1.21;100.00;100894.59;5056928;28;20494;-73
2024/02/26 02:19:21;;;;;;;1.65;1.10;;;;;;;0.94;100.00;100892.16;5040650;28;20025;-73
2024/02/26 02:21:47;;;;;;;1.42;1.08;;;;;;;0.60;100.00;100894.56;5040352;28;20036;-73
2024/02/26 02:24:13;;;;;;;5.35;1.30;;;;;;;0.40;100.00;100902.09;5040288;28;20111;-73
2024/02/26 02:26:38;;;;;;;2.92;1.30;;;;;;;0.62;100.00;100912.03;5039999;28;20025;-73
2024/02/26 02:29:04;;;;;;;1.60;1.20;;;;;;;0.79;100.00;100910.81;5040156;28;20032;-73
2024/02/26 02:31:30;;;;;;;1.77;0.90;;;;;;;0.90;100.00;100927.75;5056688;28;20032;-73
2024/02/26 02:33:56;;;;;;;2.20;1.08;;;;;;;0.82;100.00;100937.09;5040026;28;20128;-74
2024/02/26 02:36:22;;;;;;;2.13;1.40;;;;;;;0.67;100.00;100927.56;5024097;28;20451;-73
2024/02/26 02:38:51;;;;;;;1.60;1.10;;;;;;;0.52;100.00;100933.94;5039968;28;20032;-74
2024/02/26 02:41:17;;;;;;;6.18;1.50;;;;;;;0.30;100.00;100930.13;5040029;28;20032;-74
2024/02/26 02:43:43;;;;;;;2.92;1.20;;;;;;;0.39;100.00;100933.94;5040209;28;20105;-73
2024/02/26 02:46:12;;;;;;;1.88;1.30;;;;;;;0.57;100.00;100937.94;5056387;28;20441;-74
2024/02/26 02:48:38;;;;;;;3.15;1.10;;;;;;;0.65;100.00;100946.19;5056382;28;20043;-74
2024/02/26 02:51:04;;;;;;;1.92;1.40;;;;;;;0.55;100.00;100954.88;5039728;28;20025;-73
2024/02/26 02:53:30;;;;;;;4.03;1.30;;;;;;;0.35;100.00;100959.75;5056112;28;20470;-73
2024/02/26 02:55:55;;;;;;;2.28;1.20;;;;;;;0.26;100.00;100970.13;5056242;28;20194;-73
2024/02/26 02:58:21;;;;;;;3.55;1.55;;;;;;;0.25;100.00;100969.28;5055805;28;20032;-74
2024/02/26 03:00:47;;;;;;;3.80;1.20;;;;;;;0.31;100.00;100976.78;5072938;28;20032;-73
2024/02/26 03:03:13;;;;;;;2.50;1.60;;;;;;;0.33;100.00;100974.88;5055985;28;20056;-73
2024/02/26 03:05:38;;;;;;;1.95;1.48;;;;;;;0.20;100.00;100979.31;5039578;28;20035;-73
2024/02/26 03:08:04;;;;;;;1.45;1.10;;;;;;;0.18;100.00;100989.13;5039269;28;20178;-73
2024/02/26 03:10:30;;;;;;;1.20;1.00;;;;;;;0.32;100.00;100997.00;5040022;28;20028;-73
2024/02/26 03:12:56;;;;;;;3.22;1.20;;;;;;;0.27;100.00;101003.56;5039368;28;20413;-73
2024/02/26 03:15:22;;;;;;;3.47;1.13;;;;;;;0.19;100.00;101007.56;5055875;28;20024;-74
2024/02/26 03:17:48;;;;;;;1.63;0.88;;;;;;;0.21;100.00;101016.25;5039472;28;20131;-74
2024/02/26 03:20:14;;;;;;;4.15;1.42;;;;;;;0.36;100.00;101014.34;5039280;28;20090;-73
2024/02/26 03:22:40;;;;;;;4.13;1.42;;;;;;;0.50;100.00;101017.84;5055445;28;20038;-73
2024/02/26 03:25:06;;;;;;;3.58;1.25;;;;;;;0.37;100.00;101016.06;5039032;28;20051;-73
2024/02/26 03:27:32;;;;;;;2.47;1.20;;;;;;;0.33;100.00;101033.06;5055436;28;20079;-74
2024/02/26 03:29:58;;;;;;;3.47;1.27;;;;;;;0.26;100.00;101036.22;5039261;28;20032;-73
2024/02/26 03:32:23;;;;;;;2.28;1.58;;;;;;;0.21;100.00;101050.63;5039260;28;20440;-73
2024/02/26 03:34:49;;;;;;;2.25;1.33;;;;;;;0.15;100.00;101047.53;5039324;28;20082;-73
2024/02/26 03:37:15;;;;;;;2.35;1.10;;;;;;;0.09;100.00;101047.94;5039479;28;20088;-73
2024/02/26 03:39:40;;;;;;;1.90;1.20;;;;;;;0.09;100.00;101062.00;5039248;28;20037;-73
2024/02/26 03:42:06;;;;;;;2.78;1.10;;;;;;;0.19;100.00;101065.75;5055656;28;20362;-74
2024/02/26 03:44:32;;;;;;;1.77;1.00;;;;;;;0.23;100.00;101076.94;5038895;28;20467;-73
2024/02/26 03:46:58;;;;;;;2.63;1.20;;;;;;;0.10;100.00;101076.91;5055236;28;20025;-74
2024/02/26 03:49:23;;;;;;;2.38;1.30;;;;;;;0.11;100.00;101096.28;5039087;28;20090;-73
2024/02/26 03:51:49;;;;;;;5.15;1.10;;;;;;;0.15;100.00;101103.06;5039133;28;20036;-73
2024/02/26 03:54:15;;;;;;;2.05;1.15;;;;;;;0.23;100.00;101108.69;5038822;28;20016;-73
2024/02/26 03:56:40;;;;;;;1.25;0.85;;;;;;;0.35;100.00;101112.34;5039044;28;20035;-73
2024/02/26 03:59:06;;;;;;;3.25;0.85;;;;;;;0.41;100.00;101122.50;5038983;28;20056;-73
2024/02/26 04:01:32;;;;;;;1.15;0.80;;;;;;;0.54;100.00;101128.69;5055086;28;20035;-73
2024/02/26 04:03:57;;;;;;;4.68;1.60;;;;;;;0.74;100.00;101137.94;5038827;28;20080;-73
2024/02/26 04:06:23;;;;;;;2.53;1.33;;;;;;;0.69;100.00;101126.81;5038867;28;20036;-73
2024/02/26 04:08:49;;;;;;;4.72;1.38;;;;;;;0.75;100.00;101146.72;5039021;28;20028;-73
2024/02/26 04:11:17;;;;;;;8.82;1.85;;;;;;;0.61;100.00;101150.31;5038964;28;20036;-73
2024/02/26 04:13:49;;;;;;;1.48;1.02;;;;;;;0.41;100.00;101152.44;5055873;28;20039;-73
2024/02/26 04:16:16;;;;;;;8.38;1.55;;;;;;;0.67;100.00;101155.19;5039864;28;20024;-73
2024/02/26 04:18:42;;;;;;;1.85;1.15;;;;;;;0.70;100.00;101162.91;5071767;28;20074;-73
2024/02/26 04:21:08;;;;;;;3.80;1.10;;;;;;;0.62;100.00;101165.22;5038618;28;20036;-73
2024/02/26 04:23:34;;;;;;;5.78;1.23;;;;;;;0.63;100.00;101185.44;5038818;28;20359;-73
2024/02/26 04:25:59;;;;;;;4.63;1.17;;;;;;;0.63;100.00;101188.91;5039687;28;20081;-73
2024/02/26 04:28:26;;;;;;;2.35;1.08;;;;;;;0.60;100.00;101183.84;5054782;28;20475;-73
2024/02/26 04:30:52;;;;;;;4.38;1.10;;;;;;;0.63;100.00;101188.06;5055564;28;20032;-73
2024/02/26 04:33:18;;;;;;;3.63;1.10;;;;;;;0.58;100.00;101190.16;5039020;28;20366;-73
2024/02/26 04:35:43;;;;;;;3.40;0.98;;;;;;;0.59;100.00;101199.81;5039026;28;20367;-73
2024/02/26 04:38:09;;;;;;;2.58;1.02;;;;;;;0.64;100.00;101219.75;5075250;28;20126;-74
2024/02/26 04:40:35;;;;;;;3.22;1.17;;;;;;;0.77;100.00;101209.19;5042317;28;20032;-73
2024/02/26 04:43:00;;;;;;;3.15;1.25;;;;;;;0.74;100.00;101214.69;5058848;28;20032;-74
2024/02/26 04:45:26;;;;;;;2.45;1.30;;;;;;;0.71;100.00;101219.34;5042229;28;20032;-73
2024/02/26 04:47:52;;;;;;;2.10;1.20;;;;;;;0.81;100.00;101237.16;5058748;28;20109;-73
2024/02/26 04:50:17;;;;;;;4.97;1.13;;;;;;;0.88;100.00;101243.75;5042938;28;20036;-73
2024/02/26 04:52:43;;;;;;;2.97;1.05;;;;;;;0.88;100.00;101251.69;5042111;28;20466;-73
2024/02/26 04:55:09;;;;;;;4.57;1.27;;;;;;;0.82;100.00;101254.75;5042112;28;20044;-73
2024/02/26 04:57:34;;;;;;;6.35;1.35;;;;;;;0.82;100.00;101264.47;5058605;28;20032;-73
2024/02/26 05:00:00;;;;;;;1.10;0.90;;;;;;;0.88;100.00;101272.88;5041929;28;20466;-73
2024/02/26 05:02:26;;;;;;;2.58;1.00;;;;;;;0.85;100.00;101274.88;5041903;28;20040;-73
2024/02/26 05:04:52;;;;;;;2.28;1.30;;;;;;;0.88;100.00;101272.03;5041936;28;20040;-73
2024/02/26 05:07:17;;;;;;;4.72;1.17;;;;;;;1.04;100.00;101277.16;5041638;28;20027;-73
2024/02/26 05:09:43;;;;;;;2.50;1.13;;;;;;;1.21;100.00;101282.16;5041797;28;20047;-73
2024/02/26 05:12:10;;;;;;;4.57;1.13;;;;;;;1.20;100.00;101288.44;5041993;28;20032;-73
2024/02/26 05:14:35;;;;;;;2.08;1.08;;;;;;;1.22;100.00;101286.53;5058230;28;20467;-73
2024/02/26 05:17:01;;;;;;;4.13;1.27;;;;;;;1.25;100.00;101288.13;5074694;28;20024;-73
2024/02/26 05:19:27;;;;;;;4.57;1.17;;;;;;;1.24;100.00;101302.31;5041374;28;20127;-73
2024/02/26 05:21:52;;;;;;;6.85;1.10;;;;;;;1.12;100.00;101297.84;5041614;28;20036;-74
2024/02/26 05:24:22;;;;;;;4.05;1.30;;;;;;;1.00;100.00;101305.63;5041487;28;20123;-73
2024/02/26 05:26:48;;;;;;;4.57;1.00;;;;;;;0.81;100.00;101307.78;5041745;28;20451;-73
2024/02/26 05:29:13;;;;;;;4.82;1.15;;;;;;;0.62;100.00;101316.06;5041319;28;20086;-73
2024/02/26 05:31:41;;;;;;;4.65;1.23;;;;;;;0.59;100.00;101311.81;5041317;28;20370;-73
2024/02/26 05:34:07;;;;;;;3.45;1.10;;;;;;;0.73;100.00;101313.56;5074056;28;20417;-73
2024/02/26 05:36:33;;;;;;;1.88;0.80;;;;;;;0.73;100.00;101323.31;5041241;28;20062;-73
2024/02/26 05:39:00;;;;;;;1.98;0.90;;;;;;;0.71;100.00;101335.78;5041134;28;20035;-73
2024/02/26 05:41:26;;;;;;;3.20;1.15;;;;;;;0.68;100.00;101339.47;5041181;28;20062;-73
2024/02/26 05:43:55;;;;;;;3.10;1.00;;;;;;;0.55;100.00;101338.56;5057300;28;20471;-73
2024/02/26 05:46:22;;;;;;;2.85;1.42;;;;;;;0.44;100.00;101350.66;5074267;28;20021;-73
2024/02/26 05:48:49;;;;;;;1.75;0.82;;;;;;;0.43;100.00;101342.84;5056995;28;20020;-73
2024/02/26 05:51:14;;;;;;;2.58;0.85;;;;;;;0.30;100.00;101328.69;5040999;28;20501;-73
2024/02/26 05:53:43;;;;;;;5.32;1.20;;;;;;;0.14;100.00;101344.66;5058343;28;20041;-73
2024/02/26 05:56:09;;;;;;;3.28;1.38;;;;;;;-0.08;100.00;101343.31;5041394;28;20028;-73
2024/02/26 05:58:35;;;;;;;2.85;0.98;;;;;;;-0.14;100.00;101348.09;5040832;28;20550;-73
2024/02/26 06:01:00;;;;;;;5.63;1.17;;;;;;;-0.20;100.00;101348.50;5040909;28;20036;-73
2024/02/26 06:03:26;;;;;;;3.40;1.23;;;;;;;-0.23;100.00;101355.66;5040720;28;20417;-73
2024/02/26 06:05:52;;;;;;;2.65;1.10;;;;;;;-0.11;100.00;101356.69;5024348;28;20063;-74
2024/02/26 06:08:18;;;;;;;1.98;1.30;;;;;;;-0.07;100.00;101360.88;5056913;28;20044;-73
2024/02/26 06:10:44;;;;;;;3.10;1.63;;;;;;;-0.05;100.00;101360.78;5073383;28;20024;-73
2024/02/26 06:13:09;;;;;;;4.78;1.40;;;;;;;-0.28;100.00;101360.34;5040559;28;20370;-73
2024/02/26 06:15:37;;;;;;;4.18;1.38;;;;;;;-0.47;100.00;101367.69;5041103;28;20039;-73
2024/02/26 06:18:03;;;;;;;4.40;1.42;;;;;;;-0.66;100.00;101357.34;5040468;28;20032;-73
2024/02/26 06:20:29;;;;;;;3.47;1.23;;;;;;;-0.58;100.00;101367.44;5056598;28;20033;-73
2024/02/26 06:22:55;;;;;;;3.95;1.15;;;;;;;-0.58;100.00;101364.78;5040384;28;20040;-73
2024/02/26 06:25:20;;;;;;;2.40;1.20;;;;;;;-0.39;100.00;101380.44;5056385;28;20024;-73
2024/02/26 06:27:46;;;;;;;2.08;1.30;;;;;;;-0.09;100.00;101383.88;5039945;28;20028;-73
2024/02/26 06:30:12;;;;;;;4.68;1.60;;;;;;;0.08;100.00;101385.53;5041088;28;20032;-73
2024/02/26 06:32:38;;;;;;;2.28;1.30;;;;;;;0.03;100.00;101384.97;5056296;28;20481;-74
2024/02/26 06:35:06;;;;;;;4.10;1.30;;;;;;;-0.20;100.00;101388.97;5040142;28;20058;-73
2024/02/26 06:37:33;;;;;;;4.57;1.23;;;;;;;-0.37;100.00;101397.91;5040238;28;20516;-74
2024/02/26 06:40:06;;;;;;;4.45;1.27;;;;;;;-0.56;100.00;101395.47;5073033;28;20472;-74
2024/02/26 06:42:48;;;;;;;2.97;1.20;;;;;;;-0.47;100.00;101396.75;5071717;28;20028;-74
2024/02/26 06:45:13;;;;;;;4.32;1.15;;;;;;;-0.37;100.00;101399.69;5039980;28;20032;-74
2024/02/26 06:47:39;;;;;;;3.78;1.10;;;;;;;-0.31;100.00;101394.06;5056352;28;20043;-73
2024/02/26 06:50:05;;;;;;;1.20;1.08;;;;;;;-0.14;100.00;101412.38;5056536;28;20032;-73
2024/02/26 06:52:31;;;;;;;1.17;0.90;;;;;;;0.21;100.00;101423.53;5056309;28;20459;-73
2024/02/26 06:54:56;;;;;;;5.47;1.05;;;;;;;0.08;100.00;101426.97;5056330;28;20032;-73
2024/02/26 06:57:22;;;;;;;3.30;1.13;;;;;;;0.06;100.00;101432.38;5039604;28;20039;-74
2024/02/26 06:59:48;;;;;;;2.15;0.98;;;;;;;0.13;100.00;101432.84;5055760;28;20039;-73
2024/02/26 07:02:14;;;;;;;2.03;0.88;;;;;;;0.17;100.00;101447.59;5039798;28;20036;-73
2024/02/26 07:04:40;;;;;;;3.65;1.08;;;;;;;0.25;100.00;101447.97;5055735;28;20032;-73
2024/02/26 07:07:09;;;;;;;1.40;0.93;;;;;;;0.37;100.00;101459.59;5039582;28;20043;-73
2024/02/26 07:09:35;;;;;;;3.30;1.02;;;;;;;0.52;100.00;101463.97;5056526;28;20029;-74
2024/02/26 07:12:01;;;;;;;2.92;1.00;;;;;;;0.47;100.00;101466.03;5039816;28;20036;-73
2024/02/26 07:14:26;;;;;;;0.80;0.80;;;;;;;0.67;100.00;101464.84;5039790;28;20343;-73
2024/02/26 07:16:52;;;;;;;1.58;0.93;;;;;;;0.75;100.00;101464.38;5039410;28;20041;-73
2024/02/26 07:19:18;;;;;;;1.08;0.70;;;;;;;0.81;100.00;101466.63;5039371;28;20040;-73
2024/02/26 07:21:43;;;;;;;3.70;1.10;;;;;;;0.85;100.00;101469.00;5039354;28;20040;-73
2024/02/26 07:24:09;;;;;;;4.32;0.98;;;;;;;0.99;100.00;101468.13;5039240;28;20021;-73
2024/02/26 07:26:34;;;;;;;2.50;0.90;;;;;;;1.15;100.00;101480.41;5039207;28;20028;-73
2024/02/26 07:29:01;;;;;;;1.65;0.85;;;;;;;1.11;100.00;101482.38;5039258;28;20115;-73
2024/02/26 07:31:26;;;;;;;2.65;0.60;;;;;;;1.13;100.00;101493.72;5039305;28;20135;-74
2024/02/26 07:33:52;;;;;;;1.13;0.98;;;;;;;1.24;100.00;101515.09;5039229;28;20060;-73
2024/02/26 07:36:18;;;;;;;4.57;0.80;;;;;;;1.34;100.00;101515.34;5039240;28;20058;-74
2024/02/26 07:38:43;;;;;;;1.77;0.90;;;;;;;1.29;100.00;101523.59;5039149;28;20090;-73
2024/02/26 07:41:09;;;;;;;5.00;1.20;;;;;;;1.19;100.00;101526.91;5039033;28;20032;-73
2024/02/26 07:43:35;;;;;;;1.58;1.10;;;;;;;1.15;100.00;101531.56;5039057;28;20370;-73
2024/02/26 07:46:00;;;;;;;2.60;0.80;;;;;;;1.31;100.00;101537.59;5039675;28;20047;-73
2024/02/26 07:48:26;;;;;;;2.50;0.93;;;;;;;1.25;100.00;101535.34;5038802;28;20363;-73
2024/02/26 07:50:52;;;;;;;3.00;1.23;;;;;;;1.19;100.00;101538.41;5039037;28;20063;-74
2024/02/26 07:53:18;;;;;;;1.65;0.80;;;;;;;1.30;100.00;101540.38;5038262;28;20076;-73
2024/02/26 07:55:43;;;;;;;2.13;0.82;;;;;;;1.46;100.00;101545.53;5055713;28;20025;-74
2024/02/26 07:58:09;;;;;;;0.65;0.65;;;;;;;1.56;100.00;101551.94;5039103;28;20039;-73
2024/02/26 08:00:35;;;;;;;5.47;0.93;;;;;;;1.73;100.00;101562.31;5039053;28;20035;-74
2024/02/26 08:03:00;;;;;;;4.45;1.13;;;;;;;1.78;100.00;101569.97;5038655;28;20120;-73
2024/02/26 08:05:26;;;;;;;0.60;0.60;;;;;;;1.92;100.00;101577.03;5055629;28;20382;-73
2024/02/26 08:07:52;;;;;;;3.08;1.20;;;;;;;2.42;100.00;101583.47;5072000;28;20059;-74
2024/02/26 08:10:18;;;;;;;5.07;1.48;;;;;;;2.69;100.00;101590.50;5038847;28;20082;-74
2024/02/26 08:12:45;;;;;;;5.68;1.65;;;;;;;2.66;100.00;101596.88;5042287;28;20070;-74
2024/02/26 08:15:11;;;;;;;3.53;1.20;;;;;;;2.56;100.00;101606.41;5059415;28;20103;-74
2024/02/26 08:17:37;;;;;;;6.22;1.08;;;;;;;2.58;100.00;101607.19;5060229;28;20086;-74
2024/02/26 08:20:04;;;;;;;6.85;1.45;;;;;;;2.70;100.00;101606.34;5042764;28;20037;-74
2024/02/26 08:22:30;;;;;;;9.63;1.35;;;;;;;2.80;100.00;101614.53;5043498;28;20043;-74
2024/02/26 08:24:55;;;;;;;5.00;1.08;;;;;;;2.80;100.00;101611.88;5042633;28;20476;-74
2024/02/26 08:27:21;;;;;;;2.63;0.65;;;;;;;2.94;100.00;101616.22;5042332;28;20036;-73
2024/02/26 08:29:47;;;;;;;8.57;1.85;;;;;;;3.30;100.00;101613.69;5076496;28;20028;-74
2024/02/26 08:32:12;;;;;;;2.72;0.80;;;;;;;3.38;100.00;101620.28;5042997;28;20119;-73
2024/02/26 08:34:38;;;;;;;2.20;0.98;;;;;;;3.40;100.00;101631.66;5059003;28;20367;-73
2024/02/26 08:37:04;;;;;;;6.70;1.23;;;;;;;3.33;100.00;101635.69;5058827;28;20064;-74
2024/02/26 08:39:29;;;;;;;5.97;1.23;;;;;;;3.44;100.00;101641.97;5042883;28;20044;-75
2024/02/26 08:41:55;;;;;;;3.58;0.93;;;;;;;3.56;100.00;101645.56;5075680;28;20451;-74
2024/02/26 08:44:20;;;;;;;1.98;0.70;;;;;;;3.59;100.00;101637.38;5042307;28;20037;-74
2024/02/26 08:46:46;;;;;;;2.33;0.70;;;;;;;4.03;100.00;101643.13;5041845;28;20363;-73
2024/02/26 08:49:12;;;;;;;1.83;0.95;;;;;;;4.62;100.00;101646.66;5058806;28;20355;-74
2024/02/26 08:51:44;;;;;;;3.35;0.90;;;;;;;5.31;100.00;101645.88;5042103;28;20024;-74
2024/02/26 08:54:10;;;;;;;2.65;0.80;;;;;;;5.89;100.00;101643.06;5042065;28;20468;-74
2024/02/26 08:56:35;;;;;;;3.50;0.93;;;;;;;6.45;100.00;101644.78;5041990;28;20032;-74
2024/02/26 08:59:03;;;;;;;6.05;1.20;;;;;;;6.75;100.00;101636.03;5041937;28;20400;-74
2024/02/26 09:01:32;;;;;;;3.70;1.13;;;;;;;7.04;100.00;101639.75;5058797;28;20032;-74
2024/02/26 09:03:58;;;;;;;2.25;1.10;;;;;;;6.56;100.00;101634.91;5041942;28;20028;-74
2024/02/26 09:06:24;;;;;;;4.28;1.10;;;;;;;6.22;100.00;101634.19;5041743;28;20098;-75
2024/02/26 09:08:49;;;;;;;1.90;1.05;;;;;;;7.09;100.00;101641.16;5041582;28;20044;-74
2024/02/26 09:11:15;;;;;;;3.10;0.90;;;;;;;7.66;100.00;101637.09;5041763;28;20028;-75
2024/02/26 09:13:42;;;;;;;3.80;1.10;;;;;;;7.95;100.00;101630.97;5025177;28;20033;-74
2024/02/26 09:16:07;;;;;;;3.15;1.20;;;;;;;8.32;100.00;101631.19;5058640;28;20025;-75
2024/02/26 09:18:33;;;;;;;3.53;1.00;;;;;;;8.44;100.00;101634.59;5041617;28;20119;-75
2024/02/26 09:20:59;;;;;;;4.80;1.30;;;;;;;8.49;100.00;101635.84;5041676;28;20028;-74
2024/02/26 09:23:24;;;;;;;4.30;1.52;;;;;;;8.61;100.00;101633.06;5057330;28;20418;-75
2024/02/26 09:25:50;;;;;;;1.55;0.82;;;;;;;8.84;100.00;101631.78;5041432;28;20020;-74
2024/02/26 09:28:17;;;;;;;1.33;0.73;;;;;;;9.05;100.00;101626.25;5041254;28;20451;-74
2024/02/26 09:30:45;;;;;;;4.57;1.00;;;;;;;9.16;100.00;101626.06;5058632;28;20029;-74
2024/02/26 09:33:11;;;;;;;4.05;1.30;;;;;;;9.42;100.00;101628.94;5041351;28;20028;-74
2024/02/26 09:35:37;;;;;;;1.92;0.80;;;;;;;9.71;100.00;101632.47;5074459;28;20093;-74
2024/02/26 09:38:03;;;;;;;3.55;1.15;;;;;;;9.85;100.00;101619.41;5040924;28;20032;-75
2024/02/26 09:40:29;;;;;;;1.63;1.10;;;;;;;10.04;100.00;101622.97;5041147;28;20025;-75
2024/02/26 09:43:00;;;;;;;2.45;0.90;;;;;;;10.07;100.00;101618.13;5074327;28;20024;-74
2024/02/26 09:45:27;;;;;;;4.25;1.30;;;;;;;10.29;100.00;101626.78;5041289;28;20528;-74
2024/02/26 09:47:55;;;;;;;1.80;1.05;;;;;;;10.24;100.00;101637.13;5073844;28;20467;-74
2024/02/26 09:50:22;;;;;;;4.28;1.20;;;;;;;10.32;100.00;101632.72;5073787;28;20556;-74
2024/02/26 09:52:49;;;;;;;5.10;1.35;;;;;;;10.56;100.00;101644.72;5041095;28;20081;-75
2024/02/26 09:55:15;;;;;;;2.83;1.08;;;;;;;10.46;100.00;101652.84;5074532;28;20035;-74
2024/02/26 09:57:46;;;;;;;4.65;1.10;;;;;;;10.48;100.00;101660.78;5041129;28;20459;-75
2024/02/26 10:00:19;;;;;;;5.60;1.10;;;;;;;10.80;100.00;101665.59;5057208;28;20024;-75
2024/02/26 10:02:48;;;;;;;3.25;1.00;;;;;;;11.15;100.00;101663.84;5057354;28;20074;-74
2024/02/26 10:05:18;;;;;;;4.22;1.00;;;;;;;11.40;100.00;101681.84;5057039;28;20351;-74
2024/02/26 10:07:46;;;;;;;4.32;1.50;;;;;;;11.19;91.39;101684.06;5073433;28;20079;-75
2024/02/26 10:10:13;;;;;;;4.82;1.40;;;;;;;11.02;94.54;101676.88;5057410;28;20402;-74
2024/02/26 10:12:39;;;;;;;1.27;0.70;;;;;;;10.65;97.04;101692.19;5041433;28;20028;-74
2024/02/26 10:15:05;;;;;;;0.60;0.60;;;;;;;10.11;96.63;101681.34;5040279;28;20526;-74
2024/02/26 10:17:31;;;;;;;3.28;0.93;;;;;;;9.71;100.00;101680.81;5057061;28;20111;-74
2024/02/26 10:20:11;;;;;;;1.30;0.68;;;;;;;9.60;100.00;101682.69;5040727;28;20111;-74
2024/02/26 10:22:37;;;;;;;1.23;0.75;;;;;;;9.73;98.57;101681.53;5073520;28;20032;-74
2024/02/26 10:25:03;;;;;;;2.20;0.93;;;;;;;9.75;97.05;101691.13;5056495;28;20413;-74
2024/02/26 10:27:29;;;;;;;3.13;1.23;;;;;;;10.17;100.00;101695.19;5056380;28;20032;-74
2024/02/26 10:29:57;;;;;;;3.00;1.02;;;;;;;10.47;85.61;101700.25;5056831;28;20367;-75
2024/02/26 10:32:24;;;;;;;2.85;0.90;;;;;;;10.71;93.48;101705.00;5040209;28;20037;-74
2024/02/26 10:34:55;;;;;;;2.05;0.73;;;;;;;10.95;89.13;101712.47;5039009;28;20055;-74
2024/02/26 10:37:22;;;;;;;4.28;1.17;;;;;;;10.99;92.57;101699.56;5074391;28;20101;-74
2024/02/26 10:39:48;;;;;;;2.72;1.10;;;;;;;10.90;91.91;101701.34;5056651;28;20066;-74
2024/02/26 10:42:15;;;;;;;2.05;1.10;;;;;;;11.05;85.01;101704.31;5040041;28;20032;-74
2024/02/26 10:44:42;;;;;;;3.72;1.38;;;;;;;11.04;89.20;101712.56;5056783;28;20021;-74
2024/02/26 10:47:09;;;;;;;2.35;1.15;;;;;;;10.92;81.31;101723.53;5056704;28;20060;-74
2024/02/26 10:49:35;;;;;;;4.55;1.40;;;;;;;10.72;74.25;101727.41;5072869;28;20387;-74
2024/02/26 10:52:03;;;;;;;5.05;1.95;;;;;;;10.97;80.53;101734.69;5055840;28;20029;-74
2024/02/26 10:54:30;;;;;;;0.63;0.63;;;;;;;11.16;80.00;101728.28;5041270;28;20028;-74
2024/02/26 10:56:57;;;;;;;1.90;0.90;;;;;;;11.03;80.68;101732.38;5039766;28;20405;-74
2024/02/26 10:59:23;;;;;;;5.03;1.20;;;;;;;11.08;80.27;101743.53;5039887;28;20454;-74
2024/02/26 11:01:49;;;;;;;3.53;1.33;;;;;;;11.17;77.57;101734.53;5056437;28;20119;-74
2024/02/26 11:04:16;;;;;;;3.75;1.10;;;;;;;11.23;79.64;101734.75;5039853;28;20458;-74
2024/02/26 11:06:42;;;;;;;2.83;0.95;;;;;;;11.10;77.67;101744.22;5056057;28;20032;-74
2024/02/26 11:09:13;;;;;;;4.55;1.00;;;;;;;10.94;77.50;101740.38;5039509;28;20458;-74
2024/02/26 11:11:40;;;;;;;4.13;1.13;;;;;;;10.91;74.09;101739.84;5072664;28;20094;-73
2024/02/26 11:14:06;;;;;;;4.53;1.50;;;;;;;10.86;70.91;101751.06;5072637;28;20040;-74
2024/02/26 11:16:35;;;;;;;1.05;0.88;;;;;;;10.86;75.41;101742.16;5055981;28;20020;-74
2024/02/26 11:19:02;;;;;;;4.40;1.08;;;;;;;10.79;76.62;101741.91;5040207;28;20036;-74